createdAt,value
2019-05-06T00:00:59.614Z,83.16
2019-05-06T00:02:04.557Z,83.36
2019-05-06T00:03:07.469Z,83.76
2019-05-06T00:04:10.294Z,83.78
2019-05-06T00:05:14.412Z,83.48
2019-05-06T00:06:17.763Z,83.68
2019-05-06T00:07:20.906Z,83.68
2019-05-06T00:08:24.014Z,84.19
2019-05-06T00:09:26.798Z,84.19
2019-05-06T00:10:29.606Z,84.22
2019-05-06T00:11:34.420Z,83.84
2019-05-06T00:12:36.967Z,84.22
2019-05-06T00:13:39.776Z,84.16
2019-05-06T00:14:43.651Z,83.81
2019-05-06T00:15:47.598Z,83.81
2019-05-06T00:16:50.464Z,83.95
2019-05-06T00:17:53.847Z,83.73
2019-05-06T00:18:56.869Z,83.39
2019-05-06T00:19:59.671Z,83.09
2019-05-06T00:21:04.624Z,83.01
2019-05-06T00:22:07.839Z,82.64
2019-05-06T00:23:19.538Z,82.92
2019-05-06T00:24:23.945Z,82.70
2019-05-06T00:25:35.166Z,82.48
2019-05-06T00:26:57.792Z,82.64
2019-05-06T00:28:18.116Z,82.89
2019-05-06T00:29:24.360Z,82.93
2019-05-06T00:30:27.605Z,82.90
2019-05-06T00:31:30.481Z,82.90
2019-05-06T00:32:34.786Z,83.29
2019-05-06T00:33:40.874Z,83.35
2019-05-06T00:34:44.050Z,83.23
2019-05-06T00:35:47.710Z,83.23
2019-05-06T00:36:54.468Z,83.39
2019-05-06T00:37:57.850Z,83.39
2019-05-06T00:39:11.631Z,83.60
2019-05-06T00:40:21.186Z,83.57
2019-05-06T00:41:35.896Z,83.36
2019-05-06T00:43:04.668Z,83.38
2019-05-06T00:44:06.777Z,83.93
2019-05-06T00:45:10.182Z,83.87
2019-05-06T00:46:14.315Z,84.09
2019-05-06T00:47:17.647Z,83.69
2019-05-06T00:48:21.554Z,83.58
2019-05-06T00:49:24.550Z,83.38
2019-05-06T00:50:28.167Z,83.60
2019-05-06T00:51:33.899Z,83.57
2019-05-06T00:52:39.459Z,83.31
2019-05-06T00:53:45.787Z,83.68
2019-05-06T00:54:49.913Z,83.07
2019-05-06T00:55:55.476Z,83.27
2019-05-06T00:57:00.315Z,83.71
2019-05-06T00:58:04.044Z,84.08
2019-05-06T00:59:09.752Z,84.05
2019-05-06T01:00:13.565Z,84.41
2019-05-06T01:01:25.845Z,84.59
2019-05-06T01:02:21.121Z,84.62
2019-05-06T01:03:24.399Z,85.26
2019-05-06T01:04:27.674Z,85.51
2019-05-06T01:05:30.882Z,86.11
2019-05-06T01:06:34.462Z,86.11
2019-05-06T01:07:39.593Z,86.47
2019-05-06T01:08:44.066Z,86.95
2019-05-06T01:09:49.670Z,87.79
2019-05-06T01:10:57.234Z,87.79
2019-05-06T01:12:00.457Z,87.83
2019-05-06T01:13:11.443Z,87.68
2019-05-06T01:14:19.486Z,87.59
2019-05-06T01:15:23.846Z,87.94
2019-05-06T01:16:27.230Z,87.46
2019-05-06T01:17:30.736Z,87.35
2019-05-06T01:18:34.108Z,87.75
2019-05-06T01:19:37.003Z,87.75
2019-05-06T01:20:39.795Z,87.76
2019-05-06T01:21:44.543Z,88.03
2019-05-06T01:22:47.568Z,88.03
2019-05-06T01:23:51.948Z,87.96
2019-05-06T01:24:55.832Z,88.37
2019-05-06T01:25:59.190Z,87.97
2019-05-06T01:27:03.880Z,87.90
2019-05-06T01:28:06.827Z,88.06
2019-05-06T01:29:14.432Z,88.06
2019-05-06T01:30:17.255Z,88.04
2019-05-06T01:31:20.429Z,87.97
2019-05-06T01:32:23.626Z,88.47
2019-05-06T01:33:26.522Z,88.15
2019-05-06T01:34:29.572Z,88.58
2019-05-06T01:35:35.603Z,88.54
2019-05-06T01:36:39.261Z,88.97
2019-05-06T01:37:44.123Z,88.97
2019-05-06T01:39:14.832Z,89.46
2019-05-06T01:40:29.227Z,89.85
2019-05-06T01:41:59.753Z,89.74
2019-05-06T01:43:14.512Z,90.07
2019-05-06T01:44:17.417Z,90.38
2019-05-06T01:45:20.672Z,90.67
2019-05-06T01:46:24.318Z,90.95
2019-05-06T01:47:27.255Z,90.90
2019-05-06T01:48:48.499Z,90.68
2019-05-06T01:49:51.291Z,90.73
2019-05-06T01:50:54.106Z,90.92
2019-05-06T01:51:56.897Z,90.92
2019-05-06T01:52:59.738Z,90.78
2019-05-06T01:54:03.793Z,90.58
2019-05-06T01:55:10.302Z,90.50
2019-05-06T01:56:14.505Z,90.50
2019-05-06T01:57:17.465Z,90.36
2019-05-06T01:58:20.308Z,90.73
2019-05-06T01:59:24.665Z,90.44
2019-05-06T02:00:28.399Z,90.89
2019-05-06T02:01:34.091Z,90.68
2019-05-06T02:02:36.977Z,90.61
2019-05-06T02:03:39.877Z,90.81
2019-05-06T02:04:44.374Z,91.33
2019-05-06T02:05:47.107Z,90.94
2019-05-06T02:06:49.925Z,90.91
2019-05-06T02:07:54.936Z,91.03
2019-05-06T02:08:57.560Z,90.70
2019-05-06T02:10:00.362Z,91.11
2019-05-06T02:11:04.070Z,91.11
2019-05-06T02:12:07.050Z,91.22
2019-05-06T02:13:14.133Z,91.57
2019-05-06T02:14:17.341Z,91.78
2019-05-06T02:15:20.129Z,91.19
2019-05-06T02:16:24.039Z,91.42
2019-05-06T02:17:27.068Z,91.19
2019-05-06T02:18:29.906Z,92.07
2019-05-06T02:19:34.545Z,91.69
2019-05-06T02:20:40.312Z,92.67
2019-05-06T02:22:08.059Z,92.92
2019-05-06T02:23:15.450Z,92.98
2019-05-06T02:24:24.327Z,92.98
2019-05-06T02:25:34.015Z,92.69
2019-05-06T02:26:36.249Z,92.69
2019-05-06T02:27:41.874Z,92.55
2019-05-06T02:28:47.462Z,92.16
2019-05-06T02:29:58.706Z,92.16
2019-05-06T02:31:18.810Z,91.75
2019-05-06T02:32:35.911Z,92.04
2019-05-06T02:33:45.073Z,92.07
2019-05-06T02:35:05.475Z,92.07
2019-05-06T02:36:15.902Z,91.84
2019-05-06T02:37:37.427Z,91.89
2019-05-06T02:38:47.979Z,92.29
2019-05-06T02:39:44.786Z,92.19
2019-05-06T02:40:48.080Z,92.69
2019-05-06T02:41:51.238Z,92.24
2019-05-06T02:42:55.185Z,92.09
2019-05-06T02:43:58.174Z,92.27
2019-05-06T02:45:03.839Z,92.36
2019-05-06T02:46:05.957Z,92.20
2019-05-06T02:47:35.420Z,92.53
2019-05-06T02:48:54.268Z,92.81
2019-05-06T02:49:59.226Z,92.81
2019-05-06T02:51:13.351Z,92.65
2019-05-06T02:52:15.472Z,92.57
2019-05-06T02:53:23.577Z,92.39
2019-05-06T02:54:26.828Z,92.45
2019-05-06T02:55:33.275Z,92.45
2019-05-06T02:56:34.061Z,92.87
2019-05-06T02:57:36.895Z,92.30
2019-05-06T02:58:40.025Z,92.30
2019-05-06T02:59:44.212Z,91.83
2019-05-06T03:00:47.805Z,92.10
2019-05-06T03:01:53.555Z,92.44
2019-05-06T03:02:55.098Z,92.44
2019-05-06T03:04:04.071Z,92.27
2019-05-06T03:05:05.215Z,92.27
2019-05-06T03:06:08.095Z,92.23
2019-05-06T03:07:14.211Z,91.86
2019-05-06T03:08:15.686Z,91.90
2019-05-06T03:09:18.455Z,91.55
2019-05-06T03:10:24.305Z,91.55
2019-05-06T03:11:25.810Z,91.60
2019-05-06T03:12:28.588Z,91.47
2019-05-06T03:13:36.883Z,91.28
2019-05-06T03:14:40.094Z,90.90
2019-05-06T03:15:43.597Z,91.00
2019-05-06T03:16:46.575Z,91.00
2019-05-06T03:17:49.377Z,92.04
2019-05-06T03:18:53.217Z,92.08
2019-05-06T03:20:03.950Z,92.09
2019-05-06T03:21:25.109Z,92.92
2019-05-06T03:22:43.607Z,92.43
2019-05-06T03:23:47.325Z,92.43
2019-05-06T03:24:54.689Z,92.26
2019-05-06T03:26:00.027Z,92.26
2019-05-06T03:27:08.634Z,92.58
2019-05-06T03:28:14.335Z,92.54
2019-05-06T03:29:17.230Z,92.54
2019-05-06T03:30:25.631Z,91.80
2019-05-06T03:31:27.567Z,92.20
2019-05-06T03:32:37.853Z,91.89
2019-05-06T03:33:55.011Z,92.03
2019-05-06T03:35:01.205Z,92.03
2019-05-06T03:36:00.484Z,91.77
2019-05-06T03:36:49.629Z,91.77
2019-05-06T03:37:53.359Z,91.53
2019-05-06T03:39:03.097Z,91.31
2019-05-06T03:40:05.797Z,90.91
2019-05-06T03:41:09.733Z,91.15
2019-05-06T03:42:16.714Z,91.33
2019-05-06T03:43:23.237Z,90.79
2019-05-06T03:44:26.510Z,90.84
2019-05-06T03:45:42.883Z,91.39
2019-05-06T03:47:05.293Z,90.90
2019-05-06T03:48:19.893Z,91.06
2019-05-06T03:49:23.911Z,91.14
2019-05-06T03:50:26.723Z,91.25
2019-05-06T03:51:29.840Z,91.22
2019-05-06T03:52:34.208Z,91.22
2019-05-06T03:53:37.230Z,91.19
2019-05-06T03:54:45.065Z,91.19
2019-05-06T03:55:47.118Z,90.73
2019-05-06T03:56:48.970Z,90.22
2019-05-06T03:57:53.876Z,90.22
2019-05-06T03:58:56.971Z,90.50
2019-05-06T04:00:04.263Z,90.73
2019-05-06T04:01:04.802Z,90.73
2019-05-06T04:02:08.094Z,89.92
2019-05-06T04:03:13.799Z,90.30
2019-05-06T04:04:15.688Z,90.56
2019-05-06T04:05:18.494Z,90.56
2019-05-06T04:06:24.173Z,89.90
2019-05-06T04:07:26.256Z,89.69
2019-05-06T04:08:29.515Z,90.44
2019-05-06T04:09:33.521Z,89.65
2019-05-06T04:10:39.598Z,89.66
2019-05-06T04:11:43.283Z,89.92
2019-05-06T04:12:46.243Z,90.40
2019-05-06T04:13:49.105Z,90.40
2019-05-06T04:14:53.944Z,89.90
2019-05-06T04:16:07.908Z,90.01
2019-05-06T04:17:15.160Z,89.92
2019-05-06T04:18:18.037Z,90.57
2019-05-06T04:19:24.728Z,90.57
2019-05-06T04:20:48.045Z,90.44
2019-05-06T04:21:56.174Z,89.95
2019-05-06T04:23:24.105Z,89.45
2019-05-06T04:24:53.916Z,90.20
2019-05-06T04:26:09.276Z,90.20
2019-05-06T04:27:13.574Z,89.12
2019-05-06T04:28:23.844Z,89.70
2019-05-06T04:29:28.606Z,89.39
2019-05-06T04:30:33.372Z,88.79
2019-05-06T04:31:35.908Z,88.98
2019-05-06T04:32:38.703Z,89.28
2019-05-06T04:33:50.084Z,89.28
2019-05-06T04:34:49.218Z,89.74
2019-05-06T04:35:54.167Z,89.74
2019-05-06T04:36:56.869Z,89.36
2019-05-06T04:38:02.932Z,89.49
2019-05-06T04:39:12.861Z,89.61
2019-05-06T04:40:14.450Z,89.40
2019-05-06T04:41:26.582Z,89.61
2019-05-06T04:42:28.062Z,89.52
2019-05-06T04:43:33.694Z,89.79
2019-05-06T04:44:35.375Z,89.79
2019-05-06T04:45:38.171Z,89.48
2019-05-06T04:46:44.022Z,89.86
2019-05-06T04:47:53.671Z,89.86
2019-05-06T04:48:58.108Z,89.90
2019-05-06T04:50:04.418Z,90.73
2019-05-06T04:51:05.514Z,90.71
2019-05-06T04:52:13.879Z,91.17
2019-05-06T04:53:16.319Z,91.31
2019-05-06T04:54:26.157Z,90.89
2019-05-06T04:55:25.947Z,91.25
2019-05-06T04:56:28.738Z,91.25
2019-05-06T04:57:33.600Z,91.10
2019-05-06T04:58:36.166Z,91.10
2019-05-06T04:59:39.036Z,91.16
2019-05-06T05:00:44.524Z,90.85
2019-05-06T05:01:48.441Z,90.64
2019-05-06T05:02:54.742Z,90.71
2019-05-06T05:03:55.771Z,90.21
2019-05-06T05:04:58.568Z,90.21
2019-05-06T05:06:02.971Z,90.09
2019-05-06T05:07:06.312Z,89.98
2019-05-06T05:08:13.374Z,89.81
2019-05-06T05:09:17.459Z,89.81
2019-05-06T05:10:26.902Z,90.20
2019-05-06T05:12:02.530Z,90.20
2019-05-06T05:13:20.127Z,89.90
2019-05-06T05:14:42.382Z,89.14
2019-05-06T05:16:09.717Z,89.25
2019-05-06T05:17:26.231Z,89.07
2019-05-06T05:18:32.919Z,89.45
2019-05-06T05:19:36.032Z,89.51
2019-05-06T05:20:45.526Z,89.35
2019-05-06T05:21:43.715Z,88.89
2019-05-06T05:22:46.591Z,88.76
2019-05-06T05:23:52.406Z,89.11
2019-05-06T05:25:03.437Z,89.18
2019-05-06T05:26:08.290Z,89.21
2019-05-06T05:27:12.552Z,89.21
2019-05-06T05:28:15.558Z,89.08
2019-05-06T05:29:18.423Z,88.99
2019-05-06T05:44:08.404Z,87.62
2019-05-06T05:45:12.863Z,87.85
2019-05-06T05:46:15.835Z,87.85
2019-05-06T05:47:18.738Z,87.25
2019-05-06T05:48:32.522Z,86.64
2019-05-06T05:50:02.951Z,86.67
2019-05-06T05:51:05.785Z,86.67
2019-05-06T05:52:08.597Z,87.00
2019-05-06T05:53:12.092Z,87.24
2019-05-06T05:54:15.036Z,87.45
2019-05-06T05:55:18.316Z,87.18
2019-05-06T05:56:23.825Z,87.11
2019-05-06T05:57:26.253Z,87.06
2019-05-06T05:58:29.042Z,86.81
2019-05-06T05:59:32.874Z,87.08
2019-05-06T06:00:36.444Z,86.65
2019-05-06T06:01:44.257Z,86.65
2019-05-06T06:02:47.110Z,86.97
2019-05-06T06:03:52.910Z,86.44
2019-05-06T06:04:57.748Z,86.44
2019-05-06T06:06:03.058Z,86.56
2019-05-06T06:07:09.553Z,86.35
2019-05-06T06:08:36.996Z,86.35
2019-05-06T06:09:48.001Z,86.68
2019-05-06T06:11:00.449Z,86.55
2019-05-06T06:12:05.708Z,86.55
2019-05-06T06:13:09.392Z,86.55
2019-05-06T06:14:33.155Z,86.48
2019-05-06T06:15:54.670Z,86.57
2019-05-06T06:17:23.781Z,86.38
2019-05-06T06:18:44.402Z,86.19
2019-05-06T06:19:53.722Z,86.09
2019-05-06T06:21:28.103Z,86.09
2019-05-06T06:22:29.814Z,85.58
2019-05-06T06:23:43.167Z,85.09
2019-05-06T06:24:46.474Z,85.08
2019-05-06T06:25:52.829Z,85.50
2019-05-06T06:26:55.697Z,85.04
2019-05-06T06:28:02.635Z,85.49
2019-05-06T06:29:12.508Z,85.49
2019-05-06T06:30:18.389Z,84.99
2019-05-06T06:31:38.637Z,84.88
2019-05-06T06:32:41.945Z,84.55
2019-05-06T06:33:49.923Z,85.23
2019-05-06T06:35:14.543Z,85.08
2019-05-06T06:36:41.877Z,84.05
2019-05-06T06:38:09.810Z,84.05
2019-05-06T06:39:16.893Z,84.04
2019-05-06T06:40:24.008Z,83.88
2019-05-06T06:41:26.480Z,84.55
2019-05-06T06:42:29.800Z,84.23
2019-05-06T06:43:34.863Z,84.23
2019-05-06T06:44:37.663Z,84.13
2019-05-06T06:45:42.151Z,84.08
2019-05-06T06:46:45.280Z,84.76
2019-05-06T06:47:51.889Z,84.88
2019-05-06T06:48:54.850Z,84.90
2019-05-06T06:49:57.730Z,85.30
2019-05-06T06:51:03.311Z,85.30
2019-05-06T06:52:11.241Z,86.09
2019-05-06T06:53:12.304Z,86.14
2019-05-06T06:54:15.271Z,85.91
2019-05-06T06:55:20.061Z,85.91
2019-05-06T06:56:29.357Z,85.49
2019-05-06T06:57:53.154Z,85.34
2019-05-06T06:59:22.180Z,85.08
2019-05-06T07:00:44.263Z,84.29
2019-05-06T07:01:55.244Z,84.43
2019-05-06T07:03:03.648Z,84.30
2019-05-06T07:04:13.876Z,84.63
2019-05-06T07:05:29.966Z,84.81
2019-05-06T07:06:42.186Z,84.34
2019-05-06T07:07:47.521Z,84.34
2019-05-06T07:08:52.618Z,84.19
2019-05-06T07:09:55.872Z,84.46
2019-05-06T07:10:58.661Z,84.46
2019-05-06T07:12:07.240Z,84.45
2019-05-06T07:13:12.029Z,83.99
2019-05-06T07:14:16.463Z,84.34
2019-05-06T07:15:19.281Z,84.34
2019-05-06T07:16:23.521Z,84.83
2019-05-06T07:17:34.646Z,85.29
2019-05-06T07:18:37.458Z,84.49
2019-05-06T07:19:48.065Z,84.65
2019-05-06T07:23:55.574Z,83.29
2019-05-06T07:24:58.429Z,83.29
2019-05-06T07:26:04.467Z,82.73
2019-05-06T07:27:32.316Z,82.65
2019-05-06T07:28:37.651Z,82.70
2019-05-06T07:29:48.410Z,82.99
2019-05-06T07:30:45.778Z,82.84
2019-05-06T07:31:53.270Z,82.54
2019-05-06T07:32:55.522Z,81.83
2019-05-06T07:33:58.322Z,81.90
2019-05-06T07:35:06.254Z,80.82
2019-05-06T07:36:09.373Z,80.40
2019-05-06T07:37:12.831Z,80.40
2019-05-06T07:38:15.813Z,80.39
2019-05-06T07:39:23.633Z,79.05
2019-05-06T07:40:24.134Z,78.59
2019-05-06T07:41:46.156Z,78.58
2019-05-06T07:42:52.670Z,78.19
2019-05-06T07:44:14.683Z,78.07
2019-05-06T07:45:33.727Z,77.54
2019-05-06T07:46:47.660Z,77.53
2019-05-06T07:48:04.253Z,78.04
2019-05-06T07:49:07.791Z,77.45
2019-05-06T07:50:13.050Z,74.62
2019-05-06T07:51:19.043Z,74.87
2019-05-06T07:52:23.286Z,73.57
2019-05-06T07:53:26.892Z,73.66
2019-05-06T07:55:53.285Z,74.23
2019-05-06T07:56:56.103Z,75.00
2019-05-06T07:57:59.047Z,74.05
2019-05-06T07:59:12.758Z,73.59
2019-05-06T08:00:16.119Z,70.39
2019-05-06T08:01:23.435Z,69.98
2019-05-06T08:02:27.260Z,69.47
2019-05-06T08:03:32.893Z,69.07
2019-05-06T08:04:35.363Z,69.07
2019-05-06T08:05:51.591Z,68.62
2019-05-06T08:06:42.980Z,69.05
2019-05-06T08:07:48.973Z,68.72
2019-05-06T08:08:53.775Z,68.72
2019-05-06T08:10:02.302Z,68.47
2019-05-06T08:11:05.787Z,70.36
2019-05-06T08:12:12.715Z,70.47
2019-05-06T08:13:22.563Z,70.47
2019-05-06T08:14:22.799Z,70.45
2019-05-06T08:15:26.290Z,70.45
2019-05-06T08:16:31.904Z,71.13
2019-05-06T08:17:42.346Z,71.77
2019-05-06T08:18:45.735Z,72.18
2019-05-06T08:19:49.540Z,71.84
2019-05-06T08:20:57.927Z,71.84
2019-05-06T08:22:03.923Z,70.71
2019-05-06T08:23:24.358Z,71.53
2019-05-06T08:24:28.364Z,72.70
2019-05-06T08:25:47.300Z,73.11
2019-05-06T08:26:52.208Z,73.11
2019-05-06T08:28:06.874Z,71.82
2019-05-06T08:29:12.151Z,72.22
2019-05-06T08:30:17.459Z,72.92
2019-05-06T08:31:28.923Z,72.82
2019-05-06T08:32:32.294Z,72.46
2019-05-06T08:33:35.536Z,72.86
2019-05-06T08:34:39.209Z,72.86
2019-05-06T08:35:44.489Z,71.67
2019-05-06T08:37:07.494Z,72.39
2019-05-06T08:38:12.200Z,72.18
2019-05-06T08:39:17.814Z,72.24
2019-05-06T08:40:28.293Z,71.93
2019-05-06T08:41:33.157Z,72.24
2019-05-06T08:42:39.722Z,72.24
2019-05-06T08:43:43.115Z,72.54
2019-05-06T08:44:46.981Z,70.51
2019-05-06T08:45:52.832Z,70.76
2019-05-06T08:47:02.552Z,70.76
2019-05-06T08:48:06.151Z,67.82
2019-05-06T08:49:12.163Z,68.01
2019-05-06T08:50:33.058Z,67.01
2019-05-06T08:51:56.349Z,66.88
2019-05-06T08:53:24.267Z,66.88
2019-05-06T08:54:35.740Z,69.26
2019-05-06T08:55:41.963Z,69.37
2019-05-06T08:56:44.335Z,68.20
2019-05-06T08:57:47.994Z,67.71
2019-05-06T08:58:52.855Z,67.16
2019-05-06T08:59:57.363Z,67.16
2019-05-06T09:01:09.913Z,67.09
2019-05-06T09:02:16.822Z,66.45
2019-05-06T09:03:22.189Z,66.45
2019-05-06T09:04:25.724Z,65.86
2019-05-06T09:05:28.518Z,67.84
2019-05-06T09:06:34.239Z,66.81
2019-05-06T09:07:36.258Z,66.90
2019-05-06T09:08:39.217Z,67.44
2019-05-06T09:09:42.273Z,67.36
2019-05-06T09:10:46.281Z,67.36
2019-05-06T09:11:49.581Z,66.69
2019-05-06T09:12:56.073Z,67.03
2019-05-06T09:13:58.957Z,66.69
2019-05-06T09:15:03.536Z,64.98
2019-05-06T09:16:07.265Z,64.98
2019-05-06T09:17:12.073Z,64.69
2019-05-06T09:18:18.504Z,64.88
2019-05-06T09:19:25.268Z,65.04
2019-05-06T09:20:29.046Z,64.77
2019-05-06T09:21:33.477Z,63.53
2019-05-06T09:22:37.351Z,63.53
2019-05-06T09:23:42.515Z,62.52
2019-05-06T09:24:45.963Z,63.85
2019-05-06T09:25:49.107Z,63.76
2019-05-06T09:27:22.479Z,63.00
2019-05-06T09:28:34.242Z,62.58
2019-05-06T09:29:54.323Z,60.14
2019-05-06T09:31:16.642Z,60.64
2019-05-06T09:32:27.207Z,61.51
2019-05-06T09:33:42.521Z,60.92
2019-05-06T09:34:52.738Z,60.80
2019-05-06T09:35:56.311Z,61.34
2019-05-06T09:37:19.011Z,61.34
2019-05-06T09:38:22.837Z,61.52
2019-05-06T09:39:29.201Z,61.48
2019-05-06T09:40:32.163Z,61.48
2019-05-06T09:41:35.947Z,61.09
2019-05-06T09:42:42.539Z,61.51
2019-05-06T09:43:45.875Z,60.34
2019-05-06T09:44:50.642Z,60.20
2019-05-06T09:45:53.893Z,60.20
2019-05-06T09:47:04.457Z,60.64
2019-05-06T09:48:13.025Z,58.69
2019-05-06T09:49:24.226Z,59.83
2019-05-06T09:50:27.455Z,59.76
2019-05-06T09:51:33.209Z,60.80
2019-05-06T09:52:36.399Z,60.61
2019-05-06T09:54:01.474Z,60.62
2019-05-06T09:55:24.854Z,59.89
2019-05-06T09:56:34.869Z,59.21
2019-05-06T09:57:57.938Z,60.60
2019-05-06T09:59:03.870Z,59.34
2019-05-06T10:00:06.679Z,59.86
2019-05-06T10:01:09.538Z,59.91
2019-05-06T10:02:18.631Z,59.98
2019-05-06T10:03:22.587Z,62.53
2019-05-06T10:04:25.939Z,63.22
2019-05-06T10:05:28.714Z,63.06
2019-05-06T10:06:32.835Z,61.45
2019-05-06T10:07:36.261Z,61.79
2019-05-06T10:08:42.273Z,61.33
2019-05-06T10:09:46.043Z,61.22
2019-05-06T10:10:56.933Z,61.86
2019-05-06T10:11:54.323Z,63.45
2019-05-06T10:12:57.133Z,63.45
2019-05-06T10:14:02.995Z,63.23
2019-05-06T10:15:32.624Z,62.85
2019-05-06T10:16:17.473Z,63.33
2019-05-06T10:17:21.207Z,63.33
2019-05-06T10:18:24.349Z,62.62
2019-05-06T10:19:27.258Z,61.96
2019-05-06T10:20:33.083Z,62.79
2019-05-06T10:21:36.026Z,62.79
2019-05-06T10:22:38.853Z,62.93
2019-05-06T10:23:42.621Z,61.56
2019-05-06T10:24:52.148Z,62.35
2019-05-06T10:25:56.174Z,60.70
2019-05-06T10:26:59.389Z,60.70
2019-05-06T10:28:04.065Z,60.63
2019-05-06T10:29:25.993Z,60.31
2019-05-06T10:42:47.749Z,59.51
2019-05-06T10:43:53.171Z,60.12
2019-05-06T10:44:58.923Z,60.57
2019-05-06T10:46:08.375Z,60.94
2019-05-06T10:47:14.310Z,61.45
2019-05-06T10:48:17.520Z,61.45
2019-05-06T10:49:22.677Z,60.99
2019-05-06T10:50:31.236Z,61.29
2019-05-06T10:51:46.904Z,61.29
2019-05-06T10:53:13.554Z,60.54
2019-05-06T10:54:16.114Z,60.50
2019-05-06T10:55:23.162Z,59.83
2019-05-06T10:56:52.284Z,60.98
2019-05-06T10:57:47.742Z,60.04
2019-05-06T10:58:52.750Z,59.87
2019-05-06T10:59:55.819Z,61.95
2019-05-06T11:01:23.275Z,61.07
2019-05-06T11:02:45.099Z,60.59
2019-05-06T11:03:48.366Z,61.70
2019-05-06T11:04:52.984Z,60.84
2019-05-06T11:06:02.589Z,60.84
2019-05-06T11:07:31.293Z,59.83
2019-05-06T11:08:28.548Z,59.83
2019-05-06T11:09:33.286Z,60.97
2019-05-06T11:10:45.353Z,60.76
2019-05-06T11:11:47.386Z,61.33
2019-05-06T11:12:53.135Z,60.35
2019-05-06T11:14:12.423Z,61.51
2019-05-06T11:15:23.079Z,61.51
2019-05-06T11:16:24.030Z,60.52
2019-05-06T11:17:28.355Z,59.89
2019-05-06T11:18:42.396Z,60.38
2019-05-06T11:19:48.806Z,60.05
2019-05-06T11:20:53.024Z,60.05
2019-05-06T11:22:03.620Z,60.52
2019-05-06T11:23:07.403Z,60.52
2019-05-06T11:24:24.185Z,59.03
2019-05-06T11:25:28.228Z,59.03
2019-05-06T11:26:33.037Z,59.34
2019-05-06T11:27:47.388Z,58.67
2019-05-06T11:29:06.413Z,58.03
2019-05-06T11:30:21.876Z,57.85
2019-05-06T11:32:02.313Z,57.04
2019-05-06T11:33:22.271Z,57.04
2019-05-06T11:34:52.473Z,58.63
2019-05-06T11:36:08.452Z,58.63
2019-05-06T11:37:50.528Z,54.64
2019-05-06T11:38:55.933Z,53.02
2019-05-06T11:39:58.703Z,53.20
2019-05-06T11:41:18.268Z,52.13
2019-05-06T11:42:25.260Z,51.54
2019-05-06T11:43:17.290Z,51.69
2019-05-06T11:44:23.969Z,51.11
2019-05-06T11:45:29.086Z,51.68
2019-05-06T11:46:34.286Z,51.68
2019-05-06T11:47:38.151Z,52.22
2019-05-06T11:48:43.362Z,51.33
2019-05-06T11:49:47.319Z,51.29
2019-05-06T11:50:51.996Z,51.38
2019-05-06T11:51:58.871Z,51.49
2019-05-06T11:53:05.028Z,51.49
2019-05-06T11:54:17.469Z,51.71
2019-05-06T11:55:13.922Z,52.74
2019-05-06T11:56:16.976Z,51.48
2019-05-06T11:57:23.276Z,52.55
2019-05-06T11:58:48.343Z,51.62
2019-05-06T11:59:52.807Z,51.04
2019-05-06T12:01:02.741Z,50.29
2019-05-06T12:02:07.433Z,50.29
2019-05-06T12:03:12.667Z,50.36
2019-05-06T12:04:15.419Z,50.36
2019-05-06T12:05:26.766Z,48.76
2019-05-06T12:06:29.960Z,50.27
2019-05-06T12:07:36.456Z,51.17
2019-05-06T12:08:43.400Z,50.85
2019-05-06T12:09:46.301Z,51.91
2019-05-06T12:10:52.007Z,52.59
2019-05-06T12:11:55.479Z,52.59
2019-05-06T12:13:23.006Z,53.80
2019-05-06T12:14:22.516Z,54.98
2019-05-06T12:15:37.754Z,54.98
2019-05-06T12:16:41.399Z,53.67
2019-05-06T12:17:50.573Z,53.67
2019-05-06T12:18:59.811Z,53.76
2019-05-06T12:20:03.015Z,53.80
2019-05-06T12:21:12.856Z,53.53
2019-05-06T12:22:12.814Z,53.95
2019-05-06T12:23:16.299Z,54.09
2019-05-06T12:24:19.776Z,53.94
2019-05-06T12:25:23.736Z,53.00
2019-05-06T12:26:32.181Z,53.40
2019-05-06T12:27:46.864Z,53.21
2019-05-06T12:28:49.693Z,53.21
2019-05-06T12:29:53.031Z,52.77
2019-05-06T12:30:56.124Z,51.50
2019-05-06T12:32:07.199Z,52.20
2019-05-06T12:33:37.794Z,50.95
2019-05-06T12:34:42.838Z,50.60
2019-05-06T12:35:47.798Z,50.47
2019-05-06T12:36:53.570Z,50.47
2019-05-06T12:38:05.161Z,51.95
2019-05-06T12:39:26.912Z,54.57
2019-05-06T12:40:31.974Z,54.57
2019-05-06T12:41:35.844Z,56.65
2019-05-06T12:42:43.187Z,57.76
2019-05-06T12:43:52.189Z,58.67
2019-05-06T12:45:33.361Z,59.44
2019-05-06T12:46:48.533Z,59.44
2019-05-06T12:48:17.057Z,59.55
2019-05-06T12:49:29.448Z,60.19
2019-05-06T12:50:33.253Z,59.63
2019-05-06T12:51:38.616Z,59.99
2019-05-06T12:52:44.236Z,59.06
2019-05-06T12:53:47.356Z,60.08
2019-05-06T12:54:53.841Z,59.75
2019-05-06T12:56:04.142Z,59.75
2019-05-06T12:57:06.625Z,59.33
2019-05-06T12:58:13.383Z,59.44
2019-05-06T12:59:17.675Z,59.44
2019-05-06T13:00:23.590Z,59.21
2019-05-06T13:01:33.428Z,59.54
2019-05-06T13:02:33.659Z,58.92
2019-05-06T13:03:37.163Z,58.92
2019-05-06T13:04:53.284Z,59.72
2019-05-06T13:05:45.373Z,59.41
2019-05-06T13:06:48.274Z,58.20
2019-05-06T13:08:05.584Z,57.98
2019-05-06T13:09:08.208Z,58.36
2019-05-06T13:10:13.850Z,58.29
2019-05-06T13:11:17.471Z,58.73
2019-05-06T13:12:23.941Z,57.99
2019-05-06T13:13:27.631Z,57.23
2019-05-06T13:14:33.162Z,58.15
2019-05-06T13:15:36.161Z,58.15
2019-05-06T13:16:42.564Z,57.77
2019-05-06T13:17:46.361Z,56.73
2019-05-06T13:18:51.785Z,56.73
2019-05-06T13:19:53.949Z,57.12
2019-05-06T13:21:08.650Z,57.12
2019-05-06T13:22:14.738Z,57.22
2019-05-06T13:23:35.360Z,57.27
2019-05-06T13:24:38.585Z,58.97
2019-05-06T13:25:44.860Z,60.53
2019-05-06T13:26:45.944Z,60.53
2019-05-06T13:27:52.611Z,61.71
2019-05-06T13:29:24.198Z,61.56
2019-05-06T13:30:06.222Z,62.70
2019-05-06T13:31:17.352Z,62.17
2019-05-06T13:32:16.165Z,62.57
2019-05-06T13:33:44.781Z,62.92
2019-05-06T13:34:48.246Z,63.45
2019-05-06T13:35:53.413Z,63.65
2019-05-06T13:36:56.297Z,63.98
2019-05-06T13:37:59.172Z,64.03
2019-05-06T13:39:16.200Z,63.83
2019-05-06T13:40:10.434Z,63.20
2019-05-06T13:41:22.790Z,63.20
2019-05-06T13:42:27.184Z,63.41
2019-05-06T13:43:37.942Z,63.80
2019-05-06T13:44:43.192Z,63.16
2019-05-06T13:45:47.478Z,63.21
2019-05-06T13:46:58.088Z,63.98
2019-05-06T13:48:13.339Z,63.90
2019-05-06T13:49:42.883Z,64.20
2019-05-06T13:50:56.254Z,63.40
2019-05-06T13:52:12.622Z,63.40
2019-05-06T13:53:15.741Z,63.14
2019-05-06T13:54:22.422Z,63.79
2019-05-06T13:55:25.678Z,63.93
2019-05-06T13:56:33.060Z,63.91
2019-05-06T13:57:39.193Z,64.74
2019-05-06T13:58:45.954Z,64.24
2019-05-06T13:59:48.764Z,64.11
2019-05-06T14:00:53.128Z,63.27
2019-05-06T14:02:23.363Z,63.15
2019-05-06T14:03:25.702Z,63.15
2019-05-06T14:04:29.731Z,62.51
2019-05-06T14:05:33.003Z,62.16
2019-05-06T14:06:37.537Z,62.40
2019-05-06T14:07:43.030Z,62.40
2019-05-06T14:08:47.440Z,62.50
2019-05-06T14:09:53.013Z,62.01
2019-05-06T14:10:59.799Z,62.27
2019-05-06T14:12:03.142Z,61.23
2019-05-06T14:13:05.747Z,61.53
2019-05-06T14:14:12.704Z,61.53
2019-05-06T14:15:18.689Z,62.18
2019-05-06T14:16:24.680Z,62.18
2019-05-06T14:17:32.754Z,62.32
2019-05-06T14:18:37.409Z,62.10
2019-05-06T14:19:37.953Z,62.20
2019-05-06T14:20:43.642Z,62.20
2019-05-06T14:21:52.149Z,62.16
2019-05-06T14:22:57.059Z,61.80
2019-05-06T14:24:02.395Z,62.33
2019-05-06T14:25:23.264Z,62.33
2019-05-06T14:26:35.811Z,63.29
2019-05-06T14:27:43.270Z,62.79
2019-05-06T14:28:55.181Z,62.79
2019-05-06T14:30:06.684Z,62.65
2019-05-06T14:31:25.447Z,63.34
2019-05-06T14:32:32.350Z,63.86
2019-05-06T14:33:34.724Z,63.47
2019-05-06T14:34:43.110Z,63.47
2019-05-06T14:35:45.600Z,63.43
2019-05-06T14:36:48.495Z,63.43
2019-05-06T14:37:52.890Z,63.69
2019-05-06T14:38:55.898Z,63.56
2019-05-06T14:40:00.100Z,63.77
2019-05-06T14:41:13.126Z,64.80
2019-05-06T14:42:14.546Z,65.30
2019-05-06T14:43:18.670Z,65.35
2019-05-06T14:44:24.988Z,66.12
2019-05-06T14:45:28.347Z,65.33
2019-05-06T14:46:52.306Z,65.36
2019-05-06T14:47:57.507Z,65.36
2019-05-06T14:49:04.294Z,64.95
2019-05-06T14:50:08.821Z,64.79
2019-05-06T14:51:14.263Z,64.79
2019-05-06T14:52:17.698Z,64.74
2019-05-06T14:53:23.772Z,65.09
2019-05-06T14:54:26.450Z,65.47
2019-05-06T14:55:34.579Z,65.45
2019-05-06T14:56:47.435Z,65.47
2019-05-06T14:57:50.742Z,65.48
2019-05-06T14:59:12.455Z,65.48